sensor_id;sensor_type;location;lat;lon;timestamp;P1;durP1;ratioP1;P2;durP2;ratioP2
69358;SDS011;56520;49.066;8.660;2023-06-10T00:01:59;7.20;;;2.53;;
69358;SDS011;56520;49.066;8.660;2023-06-10T00:04:25;6.60;;;2.88;;
69358;SDS011;56520;49.066;8.660;2023-06-10T00:06:51;6.85;;;3.35;;
69358;SDS011;56520;49.066;8.660;2023-06-10T00:09:16;5.68;;;2.67;;
69358;SDS011;56520;49.066;8.660;2023-06-10T00:11:43;6.15;;;2.40;;
69358;SDS011;56520;49.066;8.660;2023-06-10T00:14:09;6.25;;;2.55;;
69358;SDS011;56520;49.066;8.660;2023-06-10T00:16:34;6.47;;;3.17;;
69358;SDS011;56520;49.066;8.660;2023-06-10T00:19:01;7.15;;;2.92;;
69358;SDS011;56520;49.066;8.660;2023-06-10T00:21:28;6.38;;;2.63;;
69358;SDS011;56520;49.066;8.660;2023-06-10T00:24:05;6.22;;;2.80;;
69358;SDS011;56520;49.066;8.660;2023-06-10T00:26:31;6.10;;;2.88;;
69358;SDS011;56520;49.066;8.660;2023-06-10T00:28:58;6.32;;;2.90;;
69358;SDS011;56520;49.066;8.660;2023-06-10T00:31:23;6.60;;;2.70;;
69358;SDS011;56520;49.066;8.660;2023-06-10T00:33:51;6.88;;;3.22;;
69358;SDS011;56520;49.066;8.660;2023-06-10T00:36:25;6.40;;;2.58;;
69358;SDS011;56520;49.066;8.660;2023-06-10T00:38:51;7.15;;;3.05;;
69358;SDS011;56520;49.066;8.660;2023-06-10T00:41:17;6.93;;;2.95;;
69358;SDS011;56520;49.066;8.660;2023-06-10T00:43:42;7.22;;;3.70;;
69358;SDS011;56520;49.066;8.660;2023-06-10T00:46:08;6.63;;;2.80;;
69358;SDS011;56520;49.066;8.660;2023-06-10T00:48:34;6.28;;;2.83;;
69358;SDS011;56520;49.066;8.660;2023-06-10T00:51:00;6.03;;;3.10;;
69358;SDS011;56520;49.066;8.660;2023-06-10T00:53:26;6.45;;;3.53;;
69358;SDS011;56520;49.066;8.660;2023-06-10T00:55:52;7.65;;;3.72;;
69358;SDS011;56520;49.066;8.660;2023-06-10T00:58:18;7.13;;;3.25;;
69358;SDS011;56520;49.066;8.660;2023-06-10T01:00:44;6.13;;;2.65;;
69358;SDS011;56520;49.066;8.660;2023-06-10T01:03:10;6.80;;;3.40;;
69358;SDS011;56520;49.066;8.660;2023-06-10T01:05:37;6.97;;;3.42;;
69358;SDS011;56520;49.066;8.660;2023-06-10T01:08:08;6.57;;;3.22;;
69358;SDS011;56520;49.066;8.660;2023-06-10T01:10:50;6.28;;;2.83;;
69358;SDS011;56520;49.066;8.660;2023-06-10T01:13:20;6.63;;;3.25;;
69358;SDS011;56520;49.066;8.660;2023-06-10T01:15:48;6.32;;;3.10;;
69358;SDS011;56520;49.066;8.660;2023-06-10T01:18:15;6.78;;;3.10;;
69358;SDS011;56520;49.066;8.660;2023-06-10T01:20:42;7.00;;;2.95;;
69358;SDS011;56520;49.066;8.660;2023-06-10T01:23:11;6.68;;;2.55;;
69358;SDS011;56520;49.066;8.660;2023-06-10T01:25:47;6.53;;;3.00;;
69358;SDS011;56520;49.066;8.660;2023-06-10T01:28:40;6.75;;;3.38;;
69358;SDS011;56520;49.066;8.660;2023-06-10T01:31:16;6.63;;;2.90;;
69358;SDS011;56520;49.066;8.660;2023-06-10T01:34:01;6.60;;;2.80;;
69358;SDS011;56520;49.066;8.660;2023-06-10T01:36:32;8.25;;;3.70;;
69358;SDS011;56520;49.066;8.660;2023-06-10T01:38:59;7.47;;;3.58;;
69358;SDS011;56520;49.066;8.660;2023-06-10T01:41:25;6.72;;;2.95;;
69358;SDS011;56520;49.066;8.660;2023-06-10T01:43:51;6.72;;;2.83;;
69358;SDS011;56520;49.066;8.660;2023-06-10T01:46:17;7.47;;;3.63;;
69358;SDS011;56520;49.066;8.660;2023-06-10T01:48:48;6.68;;;3.25;;
69358;SDS011;56520;49.066;8.660;2023-06-10T01:51:14;6.65;;;2.92;;
69358;SDS011;56520;49.066;8.660;2023-06-10T01:53:40;6.75;;;3.40;;
69358;SDS011;56520;49.066;8.660;2023-06-10T01:56:05;6.45;;;2.97;;
69358;SDS011;56520;49.066;8.660;2023-06-10T01:58:31;6.90;;;3.10;;
69358;SDS011;56520;49.066;8.660;2023-06-10T02:00:56;6.78;;;3.15;;
69358;SDS011;56520;49.066;8.660;2023-06-10T02:03:22;10.15;;;3.60;;
69358;SDS011;56520;49.066;8.660;2023-06-10T02:05:47;7.22;;;3.70;;
69358;SDS011;56520;49.066;8.660;2023-06-10T02:08:12;6.57;;;3.33;;
69358;SDS011;56520;49.066;8.660;2023-06-10T02:10:38;7.65;;;3.80;;
69358;SDS011;56520;49.066;8.660;2023-06-10T02:13:06;7.47;;;3.97;;
69358;SDS011;56520;49.066;8.660;2023-06-10T02:15:35;8.25;;;3.60;;
69358;SDS011;56520;49.066;8.660;2023-06-10T02:18:03;6.93;;;3.10;;
69358;SDS011;56520;49.066;8.660;2023-06-10T02:20:29;8.90;;;4.05;;
69358;SDS011;56520;49.066;8.660;2023-06-10T02:22:57;8.32;;;3.10;;
69358;SDS011;56520;49.066;8.660;2023-06-10T02:25:23;8.18;;;3.47;;
69358;SDS011;56520;49.066;8.660;2023-06-10T02:27:49;7.18;;;3.10;;
69358;SDS011;56520;49.066;8.660;2023-06-10T02:30:17;7.30;;;3.20;;
69358;SDS011;56520;49.066;8.660;2023-06-10T02:32:43;6.47;;;3.20;;
69358;SDS011;56520;49.066;8.660;2023-06-10T02:35:12;7.70;;;4.00;;
69358;SDS011;56520;49.066;8.660;2023-06-10T02:37:42;7.03;;;3.00;;
69358;SDS011;56520;49.066;8.660;2023-06-10T02:40:08;7.38;;;3.70;;
69358;SDS011;56520;49.066;8.660;2023-06-10T02:42:34;6.47;;;2.80;;
69358;SDS011;56520;49.066;8.660;2023-06-10T02:44:59;7.20;;;3.10;;
69358;SDS011;56520;49.066;8.660;2023-06-10T02:47:25;6.88;;;3.00;;
69358;SDS011;56520;49.066;8.660;2023-06-10T02:49:51;7.60;;;3.20;;
69358;SDS011;56520;49.066;8.660;2023-06-10T02:52:17;9.00;;;3.60;;
69358;SDS011;56520;49.066;8.660;2023-06-10T02:54:42;6.80;;;3.15;;
69358;SDS011;56520;49.066;8.660;2023-06-10T02:57:07;8.65;;;3.70;;
69358;SDS011;56520;49.066;8.660;2023-06-10T02:59:33;6.78;;;2.90;;
69358;SDS011;56520;49.066;8.660;2023-06-10T03:01:58;7.90;;;3.40;;
69358;SDS011;56520;49.066;8.660;2023-06-10T03:04:26;6.35;;;3.13;;
69358;SDS011;56520;49.066;8.660;2023-06-10T03:06:53;6.95;;;3.50;;
69358;SDS011;56520;49.066;8.660;2023-06-10T03:09:19;6.93;;;3.17;;
69358;SDS011;56520;49.066;8.660;2023-06-10T03:11:45;5.63;;;2.50;;
69358;SDS011;56520;49.066;8.660;2023-06-10T03:14:10;6.63;;;3.00;;
69358;SDS011;56520;49.066;8.660;2023-06-10T03:16:36;7.25;;;3.75;;
69358;SDS011;56520;49.066;8.660;2023-06-10T03:19:04;7.18;;;3.47;;
69358;SDS011;56520;49.066;8.660;2023-06-10T03:21:30;7.10;;;3.65;;
69358;SDS011;56520;49.066;8.660;2023-06-10T03:23:55;8.35;;;3.38;;
69358;SDS011;56520;49.066;8.660;2023-06-10T03:26:20;7.47;;;3.50;;
69358;SDS011;56520;49.066;8.660;2023-06-10T03:28:47;6.45;;;2.92;;
69358;SDS011;56520;49.066;8.660;2023-06-10T03:31:12;6.53;;;3.40;;
69358;SDS011;56520;49.066;8.660;2023-06-10T03:33:38;6.85;;;3.10;;
69358;SDS011;56520;49.066;8.660;2023-06-10T03:36:04;6.85;;;3.80;;
69358;SDS011;56520;49.066;8.660;2023-06-10T03:38:30;7.60;;;3.70;;
69358;SDS011;56520;49.066;8.660;2023-06-10T03:40:55;7.40;;;3.75;;
69358;SDS011;56520;49.066;8.660;2023-06-10T03:43:20;6.00;;;2.72;;
69358;SDS011;56520;49.066;8.660;2023-06-10T03:45:46;8.05;;;2.80;;
69358;SDS011;56520;49.066;8.660;2023-06-10T03:48:13;6.57;;;3.03;;
69358;SDS011;56520;49.066;8.660;2023-06-10T03:50:41;6.28;;;2.80;;
69358;SDS011;56520;49.066;8.660;2023-06-10T03:53:06;7.78;;;3.25;;
69358;SDS011;56520;49.066;8.660;2023-06-10T03:55:32;7.00;;;3.30;;
69358;SDS011;56520;49.066;8.660;2023-06-10T03:57:57;6.40;;;3.10;;
69358;SDS011;56520;49.066;8.660;2023-06-10T04:00:23;6.78;;;2.80;;
69358;SDS011;56520;49.066;8.660;2023-06-10T04:02:48;7.55;;;2.90;;
69358;SDS011;56520;49.066;8.660;2023-06-10T04:05:19;6.68;;;3.20;;
69358;SDS011;56520;49.066;8.660;2023-06-10T04:07:47;7.28;;;2.83;;
69358;SDS011;56520;49.066;8.660;2023-06-10T04:10:13;7.65;;;2.88;;
69358;SDS011;56520;49.066;8.660;2023-06-10T04:12:39;6.57;;;2.90;;
69358;SDS011;56520;49.066;8.660;2023-06-10T04:15:06;6.32;;;3.00;;
69358;SDS011;56520;49.066;8.660;2023-06-10T04:17:35;6.38;;;2.63;;
69358;SDS011;56520;49.066;8.660;2023-06-10T04:20:01;7.07;;;3.00;;
69358;SDS011;56520;49.066;8.660;2023-06-10T04:22:28;6.93;;;2.95;;
69358;SDS011;56520;49.066;8.660;2023-06-10T04:24:54;7.13;;;3.30;;
69358;SDS011;56520;49.066;8.660;2023-06-10T04:27:19;7.38;;;3.50;;
69358;SDS011;56520;49.066;8.660;2023-06-10T04:29:45;7.00;;;3.55;;
69358;SDS011;56520;49.066;8.660;2023-06-10T04:32:10;6.70;;;3.38;;
69358;SDS011;56520;49.066;8.660;2023-06-10T04:34:36;7.40;;;3.17;;
69358;SDS011;56520;49.066;8.660;2023-06-10T04:37:04;7.00;;;3.65;;
69358;SDS011;56520;49.066;8.660;2023-06-10T04:39:30;6.57;;;3.13;;
69358;SDS011;56520;49.066;8.660;2023-06-10T04:41:55;7.82;;;3.97;;
69358;SDS011;56520;49.066;8.660;2023-06-10T04:44:21;6.55;;;3.08;;
69358;SDS011;56520;49.066;8.660;2023-06-10T04:46:46;8.68;;;2.70;;
69358;SDS011;56520;49.066;8.660;2023-06-10T04:49:12;7.68;;;3.50;;
69358;SDS011;56520;49.066;8.660;2023-06-10T04:51:40;6.60;;;3.05;;
69358;SDS011;56520;49.066;8.660;2023-06-10T04:54:05;6.95;;;3.22;;
69358;SDS011;56520;49.066;8.660;2023-06-10T04:56:31;6.45;;;3.05;;
69358;SDS011;56520;49.066;8.660;2023-06-10T04:58:57;6.93;;;3.75;;
69358;SDS011;56520;49.066;8.660;2023-06-10T05:01:22;7.78;;;4.05;;
69358;SDS011;56520;49.066;8.660;2023-06-10T05:03:48;6.60;;;3.45;;
69358;SDS011;56520;49.066;8.660;2023-06-10T05:06:14;8.90;;;3.85;;
69358;SDS011;56520;49.066;8.660;2023-06-10T05:08:40;8.20;;;3.80;;
69358;SDS011;56520;49.066;8.660;2023-06-10T05:11:05;8.07;;;3.97;;
69358;SDS011;56520;49.066;8.660;2023-06-10T05:13:31;7.32;;;3.60;;
69358;SDS011;56520;49.066;8.660;2023-06-10T05:15:56;6.70;;;3.05;;
69358;SDS011;56520;49.066;8.660;2023-06-10T05:18:22;7.05;;;3.28;;
69358;SDS011;56520;49.066;8.660;2023-06-10T05:20:48;6.80;;;2.88;;
69358;SDS011;56520;49.066;8.660;2023-06-10T05:23:14;6.72;;;3.20;;
69358;SDS011;56520;49.066;8.660;2023-06-10T05:25:39;6.50;;;3.05;;
69358;SDS011;56520;49.066;8.660;2023-06-10T05:28:06;6.10;;;2.60;;
69358;SDS011;56520;49.066;8.660;2023-06-10T05:30:34;6.00;;;2.50;;
69358;SDS011;56520;49.066;8.660;2023-06-10T05:33:00;5.97;;;2.85;;
69358;SDS011;56520;49.066;8.660;2023-06-10T05:35:26;6.18;;;2.90;;
69358;SDS011;56520;49.066;8.660;2023-06-10T05:37:51;7.03;;;3.17;;
69358;SDS011;56520;49.066;8.660;2023-06-10T05:40:16;6.63;;;2.70;;
69358;SDS011;56520;49.066;8.660;2023-06-10T05:42:42;5.90;;;2.78;;
69358;SDS011;56520;49.066;8.660;2023-06-10T05:45:07;5.70;;;2.60;;
69358;SDS011;56520;49.066;8.660;2023-06-10T05:47:33;6.60;;;2.65;;
69358;SDS011;56520;49.066;8.660;2023-06-10T05:49:59;6.25;;;2.60;;
69358;SDS011;56520;49.066;8.660;2023-06-10T05:52:24;7.50;;;3.03;;
69358;SDS011;56520;49.066;8.660;2023-06-10T05:54:51;7.05;;;3.17;;
69358;SDS011;56520;49.066;8.660;2023-06-10T05:57:16;7.10;;;3.03;;
69358;SDS011;56520;49.066;8.660;2023-06-10T05:59:41;9.50;;;3.47;;
69358;SDS011;56520;49.066;8.660;2023-06-10T06:02:07;8.40;;;3.35;;
69358;SDS011;56520;49.066;8.660;2023-06-10T06:04:33;7.88;;;3.50;;
69358;SDS011;56520;49.066;8.660;2023-06-10T06:06:58;6.78;;;2.90;;
69358;SDS011;56520;49.066;8.660;2023-06-10T06:09:24;7.13;;;3.20;;
69358;SDS011;56520;49.066;8.660;2023-06-10T06:11:49;6.97;;;3.17;;
69358;SDS011;56520;49.066;8.660;2023-06-10T06:14:15;7.18;;;3.70;;
69358;SDS011;56520;49.066;8.660;2023-06-10T06:16:40;6.32;;;2.95;;
69358;SDS011;56520;49.066;8.660;2023-06-10T06:19:06;5.72;;;2.50;;
69358;SDS011;56520;49.066;8.660;2023-06-10T06:21:31;7.75;;;3.17;;
69358;SDS011;56520;49.066;8.660;2023-06-10T06:23:56;7.43;;;3.50;;
69358;SDS011;56520;49.066;8.660;2023-06-10T06:26:23;7.88;;;3.63;;
69358;SDS011;56520;49.066;8.660;2023-06-10T06:28:48;6.88;;;2.95;;
69358;SDS011;56520;49.066;8.660;2023-06-10T06:31:13;7.03;;;3.10;;
69358;SDS011;56520;49.066;8.660;2023-06-10T06:33:39;7.50;;;3.13;;
69358;SDS011;56520;49.066;8.660;2023-06-10T06:36:05;7.22;;;3.45;;
69358;SDS011;56520;49.066;8.660;2023-06-10T06:38:30;5.95;;;2.80;;
69358;SDS011;56520;49.066;8.660;2023-06-10T06:40:55;8.38;;;3.30;;
69358;SDS011;56520;49.066;8.660;2023-06-10T06:43:21;7.82;;;3.38;;
69358;SDS011;56520;49.066;8.660;2023-06-10T06:45:46;6.22;;;2.90;;
69358;SDS011;56520;49.066;8.660;2023-06-10T06:48:12;6.85;;;3.17;;
69358;SDS011;56520;49.066;8.660;2023-06-10T06:50:37;6.95;;;2.88;;
69358;SDS011;56520;49.066;8.660;2023-06-10T06:53:03;6.63;;;3.22;;
69358;SDS011;56520;49.066;8.660;2023-06-10T06:55:29;6.60;;;3.17;;
69358;SDS011;56520;49.066;8.660;2023-06-10T06:57:55;7.15;;;2.88;;
69358;SDS011;56520;49.066;8.660;2023-06-10T07:00:20;6.50;;;2.72;;
69358;SDS011;56520;49.066;8.660;2023-06-10T07:02:46;6.28;;;2.90;;
69358;SDS011;56520;49.066;8.660;2023-06-10T07:05:12;6.50;;;3.22;;
69358;SDS011;56520;49.066;8.660;2023-06-10T07:07:37;6.53;;;3.10;;
69358;SDS011;56520;49.066;8.660;2023-06-10T07:10:02;8.20;;;3.15;;
69358;SDS011;56520;49.066;8.660;2023-06-10T07:12:28;10.27;;;3.70;;
69358;SDS011;56520;49.066;8.660;2023-06-10T07:14:53;7.78;;;3.60;;
69358;SDS011;56520;49.066;8.660;2023-06-10T07:17:19;8.00;;;3.33;;
69358;SDS011;56520;49.066;8.660;2023-06-10T07:19:45;7.20;;;3.05;;
69358;SDS011;56520;49.066;8.660;2023-06-10T07:22:11;6.28;;;3.08;;
69358;SDS011;56520;49.066;8.660;2023-06-10T07:24:36;6.93;;;2.67;;
69358;SDS011;56520;49.066;8.660;2023-06-10T07:27:01;7.00;;;2.83;;
69358;SDS011;56520;49.066;8.660;2023-06-10T07:29:27;7.25;;;3.25;;
69358;SDS011;56520;49.066;8.660;2023-06-10T07:31:52;6.90;;;3.17;;
69358;SDS011;56520;49.066;8.660;2023-06-10T07:34:18;7.20;;;3.40;;
69358;SDS011;56520;49.066;8.660;2023-06-10T07:36:44;6.20;;;2.92;;
69358;SDS011;56520;49.066;8.660;2023-06-10T07:39:09;6.38;;;3.00;;
69358;SDS011;56520;49.066;8.660;2023-06-10T07:41:35;6.97;;;3.40;;
69358;SDS011;56520;49.066;8.660;2023-06-10T07:44:00;7.13;;;3.47;;
69358;SDS011;56520;49.066;8.660;2023-06-10T07:46:26;6.53;;;3.20;;
69358;SDS011;56520;49.066;8.660;2023-06-10T07:48:53;6.40;;;3.33;;
69358;SDS011;56520;49.066;8.660;2023-06-10T07:51:19;6.30;;;2.60;;
69358;SDS011;56520;49.066;8.660;2023-06-10T07:53:46;6.22;;;3.05;;
69358;SDS011;56520;49.066;8.660;2023-06-10T07:56:11;6.65;;;3.20;;
69358;SDS011;56520;49.066;8.660;2023-06-10T07:58:37;5.60;;;2.35;;
69358;SDS011;56520;49.066;8.660;2023-06-10T08:01:02;6.35;;;2.80;;
69358;SDS011;56520;49.066;8.660;2023-06-10T08:03:28;7.18;;;3.30;;
69358;SDS011;56520;49.066;8.660;2023-06-10T08:05:53;7.30;;;3.45;;
69358;SDS011;56520;49.066;8.660;2023-06-10T08:08:18;5.72;;;2.50;;
69358;SDS011;56520;49.066;8.660;2023-06-10T08:10:44;6.43;;;3.35;;
69358;SDS011;56520;49.066;8.660;2023-06-10T08:13:10;6.53;;;2.97;;
69358;SDS011;56520;49.066;8.660;2023-06-10T08:15:35;6.10;;;2.45;;
69358;SDS011;56520;49.066;8.660;2023-06-10T08:18:00;7.32;;;2.63;;
69358;SDS011;56520;49.066;8.660;2023-06-10T08:20:26;8.88;;;2.80;;
69358;SDS011;56520;49.066;8.660;2023-06-10T08:22:51;7.18;;;2.90;;
69358;SDS011;56520;49.066;8.660;2023-06-10T08:25:17;5.82;;;2.53;;
69358;SDS011;56520;49.066;8.660;2023-06-10T08:27:42;6.43;;;2.85;;
69358;SDS011;56520;49.066;8.660;2023-06-10T08:30:08;6.25;;;2.60;;
69358;SDS011;56520;49.066;8.660;2023-06-10T08:32:35;6.15;;;2.60;;
69358;SDS011;56520;49.066;8.660;2023-06-10T08:35:01;6.55;;;2.83;;
69358;SDS011;56520;49.066;8.660;2023-06-10T08:37:27;6.13;;;2.60;;
69358;SDS011;56520;49.066;8.660;2023-06-10T08:39:52;6.05;;;2.78;;
69358;SDS011;56520;49.066;8.660;2023-06-10T08:44:43;5.95;;;2.95;;
69358;SDS011;56520;49.066;8.660;2023-06-10T08:47:14;6.30;;;2.67;;
69358;SDS011;56520;49.066;8.660;2023-06-10T08:49:43;6.75;;;2.92;;
69358;SDS011;56520;49.066;8.660;2023-06-10T08:52:18;6.68;;;2.83;;
69358;SDS011;56520;49.066;8.660;2023-06-10T08:54:49;6.18;;;2.53;;
69358;SDS011;56520;49.066;8.660;2023-06-10T08:57:26;6.35;;;2.53;;
69358;SDS011;56520;49.066;8.660;2023-06-10T08:59:55;6.00;;;2.40;;
69358;SDS011;56520;49.066;8.660;2023-06-10T09:02:21;5.75;;;2.78;;
69358;SDS011;56520;49.066;8.660;2023-06-10T09:04:48;6.28;;;2.58;;
69358;SDS011;56520;49.066;8.660;2023-06-10T09:07:17;6.25;;;2.47;;
69358;SDS011;56520;49.066;8.660;2023-06-10T09:09:43;6.82;;;2.80;;
69358;SDS011;56520;49.066;8.660;2023-06-10T09:12:09;6.95;;;2.90;;
69358;SDS011;56520;49.066;8.660;2023-06-10T09:14:37;7.47;;;2.70;;
69358;SDS011;56520;49.066;8.660;2023-06-10T09:17:03;6.15;;;2.67;;
69358;SDS011;56520;49.066;8.660;2023-06-10T09:19:29;6.13;;;2.75;;
69358;SDS011;56520;49.066;8.660;2023-06-10T09:21:54;5.85;;;2.63;;
69358;SDS011;56520;49.066;8.660;2023-06-10T09:24:23;5.38;;;2.60;;
69358;SDS011;56520;49.066;8.660;2023-06-10T09:26:49;6.32;;;2.65;;
69358;SDS011;56520;49.066;8.660;2023-06-10T09:29:15;7.05;;;2.75;;
69358;SDS011;56520;49.066;8.660;2023-06-10T09:31:41;7.35;;;2.58;;
69358;SDS011;56520;49.066;8.660;2023-06-10T09:34:12;8.48;;;2.90;;
69358;SDS011;56520;49.066;8.660;2023-06-10T09:36:39;6.43;;;3.10;;
69358;SDS011;56520;49.066;8.660;2023-06-10T09:39:13;6.05;;;2.63;;
69358;SDS011;56520;49.066;8.660;2023-06-10T09:41:40;5.53;;;2.53;;
69358;SDS011;56520;49.066;8.660;2023-06-10T09:46:44;5.40;;;2.38;;
69358;SDS011;56520;49.066;8.660;2023-06-10T09:49:11;7.78;;;3.10;;
69358;SDS011;56520;49.066;8.660;2023-06-10T09:51:36;6.45;;;2.80;;
69358;SDS011;56520;49.066;8.660;2023-06-10T09:54:02;6.28;;;2.80;;
69358;SDS011;56520;49.066;8.660;2023-06-10T09:56:34;5.47;;;2.45;;
69358;SDS011;56520;49.066;8.660;2023-06-10T09:59:03;5.78;;;2.67;;
69358;SDS011;56520;49.066;8.660;2023-06-10T10:01:31;6.32;;;2.72;;
69358;SDS011;56520;49.066;8.660;2023-06-10T10:03:58;6.32;;;2.65;;
69358;SDS011;56520;49.066;8.660;2023-06-10T10:06:24;6.82;;;2.83;;
69358;SDS011;56520;49.066;8.660;2023-06-10T10:08:50;6.13;;;2.80;;
69358;SDS011;56520;49.066;8.660;2023-06-10T10:11:16;5.60;;;2.45;;
69358;SDS011;56520;49.066;8.660;2023-06-10T10:13:42;5.80;;;2.75;;
69358;SDS011;56520;49.066;8.660;2023-06-10T10:16:11;5.63;;;2.45;;
69358;SDS011;56520;49.066;8.660;2023-06-10T10:18:43;6.05;;;2.70;;
69358;SDS011;56520;49.066;8.660;2023-06-10T10:21:27;6.53;;;2.78;;
69358;SDS011;56520;49.066;8.660;2023-06-10T10:24:05;7.88;;;2.65;;
69358;SDS011;56520;49.066;8.660;2023-06-10T10:26:37;6.90;;;2.63;;
69358;SDS011;56520;49.066;8.660;2023-06-10T10:31:37;6.43;;;2.58;;
69358;SDS011;56520;49.066;8.660;2023-06-10T10:34:06;6.50;;;2.72;;
69358;SDS011;56520;49.066;8.660;2023-06-10T10:36:34;5.63;;;2.38;;
69358;SDS011;56520;49.066;8.660;2023-06-10T10:39:01;8.75;;;2.63;;
69358;SDS011;56520;49.066;8.660;2023-06-10T10:41:28;5.97;;;2.45;;
69358;SDS011;56520;49.066;8.660;2023-06-10T10:43:56;6.80;;;2.60;;
69358;SDS011;56520;49.066;8.660;2023-06-10T10:46:21;6.35;;;2.50;;
69358;SDS011;56520;49.066;8.660;2023-06-10T10:48:51;6.00;;;2.60;;
69358;SDS011;56520;49.066;8.660;2023-06-10T10:51:18;5.53;;;2.45;;
69358;SDS011;56520;49.066;8.660;2023-06-10T10:53:43;5.90;;;2.40;;
69358;SDS011;56520;49.066;8.660;2023-06-10T10:56:13;7.68;;;2.40;;
69358;SDS011;56520;49.066;8.660;2023-06-10T10:58:40;5.35;;;2.40;;
69358;SDS011;56520;49.066;8.660;2023-06-10T11:01:11;5.25;;;2.28;;
69358;SDS011;56520;49.066;8.660;2023-06-10T11:03:44;6.38;;;2.30;;
69358;SDS011;56520;49.066;8.660;2023-06-10T11:06:15;5.82;;;2.38;;
69358;SDS011;56520;49.066;8.660;2023-06-10T11:16:26;5.75;;;2.47;;
69358;SDS011;56520;49.066;8.660;2023-06-10T11:18:53;6.75;;;2.45;;
69358;SDS011;56520;49.066;8.660;2023-06-10T11:21:19;5.40;;;2.35;;
69358;SDS011;56520;49.066;8.660;2023-06-10T11:23:44;5.63;;;2.38;;
69358;SDS011;56520;49.066;8.660;2023-06-10T11:31:26;7.15;;;2.20;;
69358;SDS011;56520;49.066;8.660;2023-06-10T11:33:53;5.88;;;2.30;;
69358;SDS011;56520;49.066;8.660;2023-06-10T11:36:20;5.85;;;2.20;;
69358;SDS011;56520;49.066;8.660;2023-06-10T11:38:46;5.72;;;2.30;;
69358;SDS011;56520;49.066;8.660;2023-06-10T11:41:11;7.10;;;2.50;;
69358;SDS011;56520;49.066;8.660;2023-06-10T11:43:44;6.90;;;2.40;;
69358;SDS011;56520;49.066;8.660;2023-06-10T11:46:11;5.40;;;2.17;;
69358;SDS011;56520;49.066;8.660;2023-06-10T11:48:36;5.25;;;2.17;;
69358;SDS011;56520;49.066;8.660;2023-06-10T11:51:08;4.80;;;2.00;;
69358;SDS011;56520;49.066;8.660;2023-06-10T11:53:34;5.40;;;2.17;;
69358;SDS011;56520;49.066;8.660;2023-06-10T11:55:59;5.72;;;2.20;;
69358;SDS011;56520;49.066;8.660;2023-06-10T11:58:25;5.57;;;2.30;;
69358;SDS011;56520;49.066;8.660;2023-06-10T12:00:51;6.05;;;2.50;;
69358;SDS011;56520;49.066;8.660;2023-06-10T12:03:18;5.30;;;1.95;;
69358;SDS011;56520;49.066;8.660;2023-06-10T12:05:57;4.70;;;1.90;;
69358;SDS011;56520;49.066;8.660;2023-06-10T12:08:26;6.03;;;2.40;;
69358;SDS011;56520;49.066;8.660;2023-06-10T12:10:52;5.57;;;2.40;;
69358;SDS011;56520;49.066;8.660;2023-06-10T12:13:18;6.55;;;2.08;;
69358;SDS011;56520;49.066;8.660;2023-06-10T12:15:44;7.07;;;2.00;;
69358;SDS011;56520;49.066;8.660;2023-06-10T12:18:20;5.22;;;2.10;;
69358;SDS011;56520;49.066;8.660;2023-06-10T12:20:47;5.00;;;1.90;;
69358;SDS011;56520;49.066;8.660;2023-06-10T12:23:13;5.30;;;2.00;;
69358;SDS011;56520;49.066;8.660;2023-06-10T12:25:39;4.97;;;2.00;;
69358;SDS011;56520;49.066;8.660;2023-06-10T12:28:24;6.30;;;2.00;;
69358;SDS011;56520;49.066;8.660;2023-06-10T12:30:51;5.25;;;2.20;;
69358;SDS011;56520;49.066;8.660;2023-06-10T12:33:17;5.50;;;2.22;;
69358;SDS011;56520;49.066;8.660;2023-06-10T12:35:50;5.18;;;2.17;;
69358;SDS011;56520;49.066;8.660;2023-06-10T12:38:23;5.45;;;2.38;;
69358;SDS011;56520;49.066;8.660;2023-06-10T12:40:49;5.10;;;2.08;;
69358;SDS011;56520;49.066;8.660;2023-06-10T12:43:19;4.97;;;2.17;;
69358;SDS011;56520;49.066;8.660;2023-06-10T12:45:45;6.50;;;2.22;;
69358;SDS011;56520;49.066;8.660;2023-06-10T12:48:20;5.57;;;2.20;;
69358;SDS011;56520;49.066;8.660;2023-06-10T12:50:50;5.25;;;2.10;;
69358;SDS011;56520;49.066;8.660;2023-06-10T12:53:20;6.78;;;2.05;;
69358;SDS011;56520;49.066;8.660;2023-06-10T12:55:46;5.22;;;2.13;;
69358;SDS011;56520;49.066;8.660;2023-06-10T12:58:12;5.82;;;2.38;;
69358;SDS011;56520;49.066;8.660;2023-06-10T13:00:38;6.18;;;2.60;;
69358;SDS011;56520;49.066;8.660;2023-06-10T13:03:05;6.40;;;2.40;;
69358;SDS011;56520;49.066;8.660;2023-06-10T13:05:31;5.07;;;2.10;;
69358;SDS011;56520;49.066;8.660;2023-06-10T13:07:57;4.97;;;1.85;;
69358;SDS011;56520;49.066;8.660;2023-06-10T13:10:23;5.82;;;2.30;;
69358;SDS011;56520;49.066;8.660;2023-06-10T13:12:50;5.40;;;2.20;;
69358;SDS011;56520;49.066;8.660;2023-06-10T13:15:15;5.30;;;2.17;;
69358;SDS011;56520;49.066;8.660;2023-06-10T13:17:42;5.30;;;2.25;;
69358;SDS011;56520;49.066;8.660;2023-06-10T13:20:08;6.20;;;2.70;;
69358;SDS011;56520;49.066;8.660;2023-06-10T13:22:34;5.85;;;2.60;;
69358;SDS011;56520;49.066;8.660;2023-06-10T13:25:04;5.50;;;2.20;;
69358;SDS011;56520;49.066;8.660;2023-06-10T13:27:31;5.45;;;2.22;;
69358;SDS011;56520;49.066;8.660;2023-06-10T13:29:57;6.00;;;2.45;;
69358;SDS011;56520;49.066;8.660;2023-06-10T13:32:22;5.57;;;2.30;;
69358;SDS011;56520;49.066;8.660;2023-06-10T13:34:48;6.68;;;2.20;;
69358;SDS011;56520;49.066;8.660;2023-06-10T13:37:14;8.57;;;2.40;;
69358;SDS011;56520;49.066;8.660;2023-06-10T13:39:42;6.22;;;2.60;;
69358;SDS011;56520;49.066;8.660;2023-06-10T13:42:11;4.93;;;2.45;;
69358;SDS011;56520;49.066;8.660;2023-06-10T13:44:37;5.72;;;2.20;;
69358;SDS011;56520;49.066;8.660;2023-06-10T13:47:02;6.00;;;1.83;;
69358;SDS011;56520;49.066;8.660;2023-06-10T13:49:28;4.50;;;1.90;;
69358;SDS011;56520;49.066;8.660;2023-06-10T13:51:54;5.32;;;2.10;;
69358;SDS011;56520;49.066;8.660;2023-06-10T13:54:19;5.90;;;2.15;;
69358;SDS011;56520;49.066;8.660;2023-06-10T13:56:46;6.28;;;2.00;;
69358;SDS011;56520;49.066;8.660;2023-06-10T13:59:11;5.93;;;2.80;;
69358;SDS011;56520;49.066;8.660;2023-06-10T14:01:37;5.40;;;2.50;;
69358;SDS011;56520;49.066;8.660;2023-06-10T14:04:02;5.28;;;2.08;;
69358;SDS011;56520;49.066;8.660;2023-06-10T14:06:28;4.93;;;2.03;;
69358;SDS011;56520;49.066;8.660;2023-06-10T14:08:53;4.55;;;1.98;;
69358;SDS011;56520;49.066;8.660;2023-06-10T14:11:21;4.97;;;2.10;;
69358;SDS011;56520;49.066;8.660;2023-06-10T14:13:47;6.30;;;2.10;;
69358;SDS011;56520;49.066;8.660;2023-06-10T14:16:12;5.15;;;2.13;;
69358;SDS011;56520;49.066;8.660;2023-06-10T14:18:38;5.72;;;2.20;;
69358;SDS011;56520;49.066;8.660;2023-06-10T14:21:03;7.88;;;2.13;;
69358;SDS011;56520;49.066;8.660;2023-06-10T14:23:28;4.75;;;2.00;;
69358;SDS011;56520;49.066;8.660;2023-06-10T14:25:54;4.90;;;2.00;;
69358;SDS011;56520;49.066;8.660;2023-06-10T14:28:19;5.25;;;2.20;;
69358;SDS011;56520;49.066;8.660;2023-06-10T14:30:45;5.40;;;2.03;;
69358;SDS011;56520;49.066;8.660;2023-06-10T14:33:10;6.25;;;2.10;;
69358;SDS011;56520;49.066;8.660;2023-06-10T14:35:36;5.45;;;1.90;;
69358;SDS011;56520;49.066;8.660;2023-06-10T14:38:01;4.63;;;1.88;;
69358;SDS011;56520;49.066;8.660;2023-06-10T14:40:26;5.97;;;2.00;;
69358;SDS011;56520;49.066;8.660;2023-06-10T14:42:54;4.93;;;2.10;;
69358;SDS011;56520;49.066;8.660;2023-06-10T14:45:20;5.43;;;2.00;;
69358;SDS011;56520;49.066;8.660;2023-06-10T14:47:45;4.47;;;1.80;;
69358;SDS011;56520;49.066;8.660;2023-06-10T14:50:12;5.95;;;2.20;;
69358;SDS011;56520;49.066;8.660;2023-06-10T14:52:37;4.65;;;1.80;;
69358;SDS011;56520;49.066;8.660;2023-06-10T14:55:03;4.90;;;2.00;;
69358;SDS011;56520;49.066;8.660;2023-06-10T14:57:29;5.07;;;2.35;;
69358;SDS011;56520;49.066;8.660;2023-06-10T14:59:54;4.30;;;1.80;;
69358;SDS011;56520;49.066;8.660;2023-06-10T15:02:21;5.47;;;2.10;;
69358;SDS011;56520;49.066;8.660;2023-06-10T15:04:47;4.78;;;1.90;;
69358;SDS011;56520;49.066;8.660;2023-06-10T15:07:12;6.00;;;2.00;;